Time;durP1;ratioP1;P1;durP2;ratioP2;P2;SDS_P1;SDS_P2;PMS_P1;PMS_P2;Temp;Humidity;BMP_temperature;BMP_pressure;BME280_temperature;BME280_humidity;BME280_pressure;Samples;Min_cycle;Max_cycle;Signal;HPM_P1;HPM_P2
2022/04/02 00:00:24;;;;;;;;;;;2.80;99.80;;;;;;5093022;28;19923;-78
2022/04/02 00:02:50;;;;;;;;;;;2.80;99.90;;;;;;5092951;28;20002;-78
2022/04/02 00:05:15;;;;;;;;;;;2.80;99.90;;;;;;5092954;28;19919;-78
2022/04/02 00:07:41;;;;;;;;;;;2.80;99.90;;;;;;5092136;28;19919;-78
2022/04/02 00:10:07;;;;;;;;;;;2.80;99.90;;;;;;5110603;28;19975;-79
2022/04/02 00:12:32;;;;;;;;;;;2.70;99.90;;;;;;5092571;28;19919;-78
2022/04/02 00:14:58;;;;;;;;;;;2.80;99.90;;;;;;5092588;28;19927;-78
2022/04/02 00:17:24;;;;;;;;;;;2.80;99.90;;;;;;5092029;28;20220;-78
2022/04/02 00:19:49;;;;;;;;;;;2.80;99.90;;;;;;5092441;28;19999;-79
2022/04/02 00:22:15;;;;;;;;;;;2.80;99.90;;;;;;5108362;28;19965;-78
2022/04/02 00:24:41;;;;;;;;;;;2.80;99.90;;;;;;5110485;28;19919;-78
2022/04/02 00:27:06;;;;;;;;;;;2.80;99.90;;;;;;5109143;28;19920;-78
2022/04/02 00:29:34;;;;;;;;;;;2.80;99.90;;;;;;5109362;28;19974;-78
2022/04/02 00:31:59;;;;;;;;;;;2.80;99.90;;;;;;5092151;28;19926;-79
2022/04/02 00:34:25;;;;;;;;;;;2.80;99.90;;;;;;5110255;28;19923;-78
2022/04/02 00:36:50;;;;;;;;;;;2.80;99.90;;;;;;5092092;28;19920;-79
2022/04/02 00:39:16;;;;;;;;;;;2.80;99.90;;;;;;5092368;28;19926;-79
2022/04/02 00:41:41;;;;;;;;;;;2.80;99.90;;;;;;5091427;28;19992;-78
2022/04/02 00:44:16;;;;;;;;;;;2.80;99.90;;;;;;5108962;28;20319;-79
2022/04/02 00:46:43;;;;;;;;;;;2.80;99.90;;;;;;5092101;28;20410;-78
2022/04/02 00:49:09;;;;;;;;;;;2.80;99.90;;;;;;5092118;28;20396;-78
2022/04/02 00:51:41;;;;;;;;;;;2.80;99.90;;;;;;5103897;28;20012;-79
2022/04/02 00:54:12;;;;;;;;;;;2.80;99.90;;;;;;5097239;28;19929;-79
2022/04/02 00:56:39;;;;;;;;;;;2.80;99.90;;;;;;5107952;28;19929;-78
2022/04/02 00:59:04;;;;;;;;;;;2.80;99.90;;;;;;5111676;27;19926;-78
2022/04/02 01:01:31;;;;;;;;;;;2.80;99.90;;;;;;5111399;28;19919;-78
2022/04/02 01:03:59;;;;;;;;;;;2.80;99.90;;;;;;5111571;28;19920;-78
2022/04/02 01:06:26;;;;;;;;;;;2.80;99.90;;;;;;5111446;28;20292;-79
2022/04/02 01:08:52;;;;;;;;;;;2.70;99.90;;;;;;5111008;28;19927;-78
2022/04/02 01:11:17;;;;;;;;;;;2.70;99.90;;;;;;5111467;28;20354;-79
2022/04/02 01:13:43;;;;;;;;;;;2.70;99.90;;;;;;5111149;28;19964;-79
2022/04/02 01:16:08;;;;;;;;;;;2.70;99.90;;;;;;5093796;28;19966;-79
2022/04/02 01:18:34;;;;;;;;;;;2.70;99.90;;;;;;5111097;28;20278;-78
2022/04/02 01:20:59;;;;;;;;;;;2.70;99.90;;;;;;5094170;28;19919;-79
2022/04/02 01:23:29;;;;;;;;;;;2.70;99.90;;;;;;5111270;28;19987;-78
2022/04/02 01:25:58;;;;;;;;;;;2.70;99.90;;;;;;5099020;28;19923;-78
2022/04/02 01:28:24;;;;;;;;;;;2.70;99.90;;;;;;5090526;28;20464;-78
2022/04/02 01:30:50;;;;;;;;;;;2.70;99.90;;;;;;5073464;28;20328;-79
2022/04/02 01:33:15;;;;;;;;;;;2.70;99.90;;;;;;5076204;28;19974;-79
2022/04/02 01:35:41;;;;;;;;;;;2.70;99.90;;;;;;5094857;28;20350;-79
2022/04/02 01:38:07;;;;;;;;;;;2.70;99.90;;;;;;5095059;28;20059;-79
2022/04/02 01:40:32;;;;;;;;;;;2.60;99.90;;;;;;5093893;28;19928;-79
2022/04/02 01:42:58;;;;;;;;;;;2.60;99.90;;;;;;5093960;28;19919;-79
2022/04/02 01:45:23;;;;;;;;;;;2.60;99.90;;;;;;5094586;28;20401;-79
2022/04/02 01:47:51;;;;;;;;;;;2.60;99.90;;;;;;5094556;28;19924;-79
2022/04/02 01:50:17;;;;;;;;;;;2.60;99.90;;;;;;5094092;28;19927;-79
2022/04/02 01:52:43;;;;;;;;;;;2.60;99.90;;;;;;5112663;28;20006;-79
2022/04/02 01:55:08;;;;;;;;;;;2.60;99.90;;;;;;5094765;28;20043;-78
2022/04/02 01:57:34;;;;;;;;;;;2.50;99.90;;;;;;5093733;28;19924;-78
2022/04/02 02:00:00;;;;;;;;;;;2.50;99.90;;;;;;5105862;27;20283;-78
2022/04/02 02:02:26;;;;;;;;;;;2.60;99.90;;;;;;5114745;27;19924;-78
2022/04/02 02:04:51;;;;;;;;;;;2.50;99.90;;;;;;5114754;27;19923;-78
2022/04/02 02:07:18;;;;;;;;;;;2.50;99.90;;;;;;5114680;27;19926;-79
2022/04/02 02:09:44;;;;;;;;;;;2.50;99.90;;;;;;5097608;27;19973;-78
2022/04/02 02:12:10;;;;;;;;;;;2.60;99.90;;;;;;5114503;27;19974;-78
2022/04/02 02:14:36;;;;;;;;;;;2.50;99.90;;;;;;5113794;27;20081;-79
2022/04/02 02:17:01;;;;;;;;;;;2.60;99.90;;;;;;5114036;27;20377;-79
2022/04/02 02:19:27;;;;;;;;;;;2.60;99.90;;;;;;5114605;27;20501;-78
2022/04/02 02:21:52;;;;;;;;;;;2.50;99.90;;;;;;5114234;27;19967;-78
2022/04/02 02:24:18;;;;;;;;;;;2.60;99.90;;;;;;5097041;27;19920;-78
2022/04/02 02:26:43;;;;;;;;;;;2.50;99.90;;;;;;5113769;27;20293;-79
2022/04/02 02:29:09;;;;;;;;;;;2.60;99.90;;;;;;5114734;27;20433;-79
2022/04/02 02:31:34;;;;;;;;;;;2.60;99.90;;;;;;5113846;27;19926;-79
2022/04/02 02:36:44;;;;;;;;;;;2.50;99.90;;;;;;5114335;27;19955;-79
2022/04/02 02:39:10;;;;;;;;;;;2.60;99.90;;;;;;5113900;27;19970;-79
2022/04/02 02:41:36;;;;;;;;;;;2.50;99.90;;;;;;5113240;27;19959;-78
2022/04/02 02:44:01;;;;;;;;;;;2.50;99.90;;;;;;5112850;27;19927;-78
2022/04/02 02:46:28;;;;;;;;;;;2.50;99.90;;;;;;5131399;27;20007;-78
2022/04/02 02:48:54;;;;;;;;;;;2.50;99.90;;;;;;5113738;27;19970;-78
2022/04/02 02:51:19;;;;;;;;;;;2.50;99.90;;;;;;5113538;27;20323;-78
2022/04/02 02:53:45;;;;;;;;;;;2.50;99.90;;;;;;5113489;27;19919;-78
2022/04/02 02:56:11;;;;;;;;;;;2.50;99.90;;;;;;5113352;27;19976;-79
2022/04/02 02:58:36;;;;;;;;;;;2.50;99.90;;;;;;5113577;27;19972;-78
2022/04/02 03:01:02;;;;;;;;;;;2.50;99.90;;;;;;5113742;27;19919;-78
2022/04/02 03:03:27;;;;;;;;;;;2.50;99.90;;;;;;5112744;27;20311;-79
2022/04/02 03:05:53;;;;;;;;;;;2.50;99.90;;;;;;5113310;27;19931;-78
2022/04/02 03:08:19;;;;;;;;;;;2.50;99.90;;;;;;5131857;27;19919;-79
2022/04/02 03:10:45;;;;;;;;;;;2.50;99.90;;;;;;5113274;27;19961;-79
2022/04/02 03:13:10;;;;;;;;;;;2.50;99.90;;;;;;5112878;27;19923;-79
2022/04/02 03:15:36;;;;;;;;;;;2.40;99.90;;;;;;5131608;27;20379;-79
2022/04/02 03:18:03;;;;;;;;;;;2.40;99.90;;;;;;5113236;27;19920;-79
2022/04/02 03:20:28;;;;;;;;;;;2.40;99.90;;;;;;5113226;27;19926;-79
2022/04/02 03:22:54;;;;;;;;;;;2.40;99.90;;;;;;5131366;27;19923;-79
2022/04/02 03:25:20;;;;;;;;;;;2.40;99.90;;;;;;5131091;27;19971;-78
2022/04/02 03:27:46;;;;;;;;;;;2.40;99.90;;;;;;5131593;27;20301;-79
2022/04/02 03:30:13;;;;;;;;;;;2.40;99.90;;;;;;5112994;27;19924;-79
2022/04/02 03:32:39;;;;;;;;;;;2.40;99.90;;;;;;5112682;27;19923;-79
2022/04/02 03:35:05;;;;;;;;;;;2.40;99.90;;;;;;5130604;27;19926;-78
2022/04/02 03:37:31;;;;;;;;;;;2.40;99.90;;;;;;5130957;27;19984;-78
2022/04/02 03:39:56;;;;;;;;;;;2.40;99.90;;;;;;5112866;27;20332;-78
2022/04/02 03:42:22;;;;;;;;;;;2.40;99.90;;;;;;5130745;27;20010;-79
2022/04/02 03:44:48;;;;;;;;;;;2.50;99.90;;;;;;5130776;27;19941;-79
2022/04/02 03:47:15;;;;;;;;;;;2.50;99.90;;;;;;5112258;27;19927;-79
2022/04/02 03:49:42;;;;;;;;;;;2.50;99.90;;;;;;5095478;27;19920;-79
2022/04/02 03:52:08;;;;;;;;;;;2.50;99.90;;;;;;5130681;27;19938;-79
2022/04/02 03:54:35;;;;;;;;;;;2.50;99.90;;;;;;5130805;27;19919;-79
2022/04/02 03:57:02;;;;;;;;;;;2.50;99.90;;;;;;5112623;27;19923;-79
2022/04/02 03:59:28;;;;;;;;;;;2.60;99.90;;;;;;5123284;27;20010;-79
2022/04/02 04:01:53;;;;;;;;;;;2.60;99.90;;;;;;5109647;28;20034;-78
2022/04/02 04:04:19;;;;;;;;;;;2.70;99.90;;;;;;5110141;28;19920;-78
2022/04/02 04:06:45;;;;;;;4.80;1.17;;;2.70;99.90;;;;;;5109838;28;20305;-78
2022/04/02 04:09:10;;;;;;;4.20;1.33;;;2.70;99.90;;;;;;5091322;28;20046;-78
2022/04/02 04:11:36;;;;;;;4.57;1.55;;;2.80;99.90;;;;;;5089513;28;20051;-78
2022/04/02 04:14:01;;;;;;;2.47;1.08;;;2.80;99.90;;;;;;5109643;28;20051;-78
2022/04/02 04:16:27;;;;;;;4.72;1.45;;;2.80;99.90;;;;;;5091272;28;20040;-78
2022/04/02 04:18:53;;;;;;;7.15;1.30;;;2.80;99.90;;;;;;5090981;28;20043;-78
2022/04/02 04:21:18;;;;;;;5.40;1.25;;;2.80;99.90;;;;;;5109596;28;20480;-78
2022/04/02 04:23:44;;;;;;;6.15;1.45;;;2.80;99.90;;;;;;5090681;28;20473;-78
2022/04/02 04:26:11;;;;;;;5.53;1.70;;;2.80;99.90;;;;;;5091292;28;20378;-78
2022/04/02 04:28:37;;;;;;;5.07;1.42;;;2.90;99.90;;;;;;5090963;28;20082;-78
2022/04/02 04:31:04;;;;;;;5.63;1.80;;;2.80;99.90;;;;;;5091430;28;20043;-78
2022/04/02 04:33:30;;;;;;;4.65;2.00;;;2.90;99.90;;;;;;5109025;28;20460;-78
2022/04/02 04:35:56;;;;;;;4.90;2.00;;;2.80;99.90;;;;;;5090905;28;20092;-78
2022/04/02 04:38:22;;;;;;;5.57;2.22;;;2.90;99.90;;;;;;5090526;28;20047;-78
2022/04/02 04:40:47;;;;;;;4.15;1.60;;;2.90;99.90;;;;;;5108882;28;20131;-78
2022/04/02 04:43:13;;;;;;;5.53;2.03;;;2.80;99.90;;;;;;5108038;28;20052;-78
2022/04/02 04:45:39;;;;;;;5.18;2.08;;;2.80;99.90;;;;;;5107776;28;20047;-78
2022/04/02 04:48:05;;;;;;;5.40;2.42;;;2.80;99.90;;;;;;5106877;28;20494;-78
2022/04/02 04:50:31;;;;;;;5.88;2.30;;;2.70;99.90;;;;;;5106852;28;20406;-79
2022/04/02 04:52:57;;;;;;;10.13;2.45;;;2.70;99.90;;;;;;5106562;28;20812;-78
2022/04/02 04:55:23;;;;;;;7.25;2.70;;;2.60;99.90;;;;;;5106866;28;20400;-78
2022/04/02 04:57:49;;;;;;;5.35;2.50;;;2.60;99.90;;;;;;5088424;28;20400;-79
2022/04/02 05:00:15;;;;;;;6.00;2.47;;;2.50;99.90;;;;;;5085391;27;20409;-79
2022/04/02 05:02:44;;;;;;;5.72;2.47;;;2.50;99.90;;;;;;5127417;27;20394;-79
2022/04/02 05:05:12;;;;;;;7.70;2.50;;;2.50;99.90;;;;;;5109227;28;20414;-79
2022/04/02 05:07:39;;;;;;;7.20;2.40;;;2.40;99.90;;;;;;5126525;27;20509;-79
2022/04/02 05:10:06;;;;;;;6.47;2.50;;;2.40;99.90;;;;;;5109357;28;20399;-78
2022/04/02 05:12:32;;;;;;;6.13;2.60;;;2.40;99.90;;;;;;5127575;28;20981;-78
2022/04/02 05:14:57;;;;;;;4.88;2.72;;;2.30;99.90;;;;;;5128097;28;20436;-79
2022/04/02 05:17:23;;;;;;;6.73;2.40;;;2.30;99.90;;;;;;5109021;28;20395;-78
2022/04/02 05:19:49;;;;;;;6.40;2.75;;;2.30;99.90;;;;;;5127151;28;20395;-79
2022/04/02 05:22:15;;;;;;;6.38;2.63;;;2.30;99.90;;;;;;5109480;28;20452;-79
2022/04/02 05:24:41;;;;;;;6.10;2.47;;;2.30;99.90;;;;;;5127415;28;21475;-79
2022/04/02 05:27:06;;;;;;;5.50;2.40;;;2.30;99.90;;;;;;5127815;28;20472;-79
2022/04/02 05:29:32;;;;;;;4.90;2.70;;;2.30;99.90;;;;;;5127789;28;20398;-79
2022/04/02 05:31:58;;;;;;;7.30;2.45;;;2.30;99.90;;;;;;5127263;28;20418;-79
2022/04/02 05:34:23;;;;;;;5.47;2.50;;;2.30;99.90;;;;;;5127260;28;20583;-79
2022/04/02 05:36:49;;;;;;;6.22;2.28;;;2.40;99.90;;;;;;5127758;28;20387;-79
2022/04/02 05:39:15;;;;;;;6.85;2.25;;;2.50;99.90;;;;;;5127690;28;20430;-79
2022/04/02 05:41:41;;;;;;;6.53;2.28;;;2.60;99.90;;;;;;5108711;28;20446;-79
2022/04/02 05:44:07;;;;;;;4.60;1.70;;;2.60;99.90;;;;;;5108577;28;20544;-79
2022/04/02 05:46:33;;;;;;;4.23;1.50;;;2.60;99.90;;;;;;5127696;28;20435;-79
2022/04/02 05:48:59;;;;;;;4.13;1.75;;;2.70;99.90;;;;;;5109346;28;20398;-79
2022/04/02 05:51:25;;;;;;;4.25;1.58;;;2.70;99.90;;;;;;5127241;28;20403;-79
2022/04/02 05:53:51;;;;;;;6.10;1.80;;;2.80;99.90;;;;;;5127725;28;20398;-79
2022/04/02 05:56:18;;;;;;;5.93;1.77;;;2.80;99.90;;;;;;5127168;28;20399;-77
2022/04/02 05:58:44;;;;;;;4.55;1.83;;;2.90;99.90;;;;;;5126192;28;20592;-77
2022/04/02 06:01:10;;;;;;;5.80;1.90;;;3.00;99.90;;;;;;5106985;28;20495;-77
2022/04/02 06:03:36;;;;;;;5.40;1.90;;;3.00;99.90;;;;;;5088697;28;20408;-77
2022/04/02 06:06:02;;;;;;;4.68;1.48;;;3.10;99.90;;;;;;5107367;28;20411;-77
2022/04/02 06:08:28;;;;;;;4.47;1.88;;;3.30;99.90;;;;;;5106034;28;20388;-77
2022/04/02 06:10:54;;;;;;;4.47;1.75;;;3.40;99.90;;;;;;5106444;28;20759;-78
2022/04/02 06:13:19;;;;;;;3.87;2.00;;;3.50;99.90;;;;;;5088018;28;20439;-78
2022/04/02 06:15:45;;;;;;;3.73;1.53;;;3.60;99.90;;;;;;5106512;28;20927;-78
2022/04/02 06:18:12;;;;;;;5.50;1.80;;;3.70;99.90;;;;;;5105482;28;20396;-78
2022/04/02 06:20:38;;;;;;;6.18;1.95;;;3.80;99.90;;;;;;5090800;28;20408;-78
2022/04/02 06:23:04;;;;;;;5.43;1.80;;;3.80;99.90;;;;;;5091665;28;20396;-78
2022/04/02 06:25:29;;;;;;;4.63;2.03;;;3.90;99.90;;;;;;5109063;28;20406;-77
2022/04/02 06:27:55;;;;;;;4.32;1.80;;;3.80;99.90;;;;;;5110053;28;20407;-77
2022/04/02 06:30:21;;;;;;;5.70;1.80;;;3.80;99.90;;;;;;5109324;28;20397;-79
2022/04/02 06:32:47;;;;;;;5.82;2.05;;;3.90;99.90;;;;;;5108890;28;20960;-79
2022/04/02 06:35:12;;;;;;;5.30;1.70;;;3.90;99.90;;;;;;5091195;28;20408;-78
2022/04/02 06:37:40;;;;;;;5.63;1.77;;;4.00;99.90;;;;;;5091543;28;20971;-80
2022/04/02 06:40:11;;;;;;;4.20;1.50;;;4.10;99.90;;;;;;5109759;28;20445;-77
2022/04/02 06:42:36;;;;;;;4.22;1.55;;;4.10;99.90;;;;;;5108302;28;20452;-77
2022/04/02 06:45:03;;;;;;;2.35;1.00;;;4.10;99.90;;;;;;5090862;27;20426;-77
2022/04/02 06:47:31;;;;;;;4.13;1.20;;;4.10;99.90;;;;;;5100327;27;20408;-78
2022/04/02 06:49:57;;;;;;;3.55;1.15;;;4.10;99.90;;;;;;5104960;28;20430;-78
2022/04/02 06:52:24;;;;;;;4.35;1.40;;;4.10;99.90;;;;;;5118183;27;20427;-78
2022/04/02 06:54:50;;;;;;;3.83;1.38;;;4.10;99.90;;;;;;5087161;28;20411;-78
2022/04/02 06:57:22;;;;;;;4.55;1.67;;;4.00;99.90;;;;;;5089123;28;20408;-78
2022/04/02 06:59:48;;;;;;;5.47;1.60;;;4.00;99.90;;;;;;5103666;27;20428;-78
2022/04/02 07:02:14;;;;;;;4.37;1.80;;;3.80;99.90;;;;;;5090336;28;20710;-77
2022/04/02 07:04:40;;;;;;;3.95;1.30;;;3.80;99.90;;;;;;5093418;28;20969;-77
2022/04/02 07:07:06;;;;;;;3.38;1.58;;;3.70;99.90;;;;;;5093437;27;20403;-77
2022/04/02 07:09:32;;;;;;;3.30;1.50;;;3.70;99.90;;;;;;5089434;28;20404;-79
2022/04/02 07:11:57;;;;;;;3.60;1.40;;;3.70;99.90;;;;;;5107842;28;20428;-78
2022/04/02 07:14:23;;;;;;;3.08;1.10;;;3.80;99.90;;;;;;5088564;27;20508;-78
2022/04/02 07:16:49;;;;;;;3.13;1.00;;;3.80;99.90;;;;;;5128223;27;20395;-79
2022/04/02 07:19:20;;;;;;;4.40;1.10;;;3.80;99.90;;;;;;5114177;27;20782;-79
2022/04/02 07:21:46;;;;;;;2.92;0.88;;;3.90;99.90;;;;;;5108571;28;20401;-77
2022/04/02 07:24:13;;;;;;;2.65;0.80;;;3.90;99.90;;;;;;5112507;27;20407;-77
2022/04/02 07:26:39;;;;;;;3.00;0.80;;;4.00;99.90;;;;;;5108016;28;20407;-77
2022/04/02 07:29:07;;;;;;;4.28;1.00;;;4.10;99.90;;;;;;5108428;28;20404;-77
2022/04/02 07:31:33;;;;;;;4.00;1.00;;;4.20;99.90;;;;;;5107367;28;20400;-78
2022/04/02 07:33:59;;;;;;;4.10;1.17;;;4.30;99.90;;;;;;5107556;28;20407;-78
2022/04/02 07:36:36;;;;;;;5.45;1.30;;;4.40;99.90;;;;;;5108054;27;20508;-78
2022/04/02 07:39:27;;;;;;;3.35;1.20;;;4.40;99.90;;;;;;5108050;27;20408;-78
2022/04/02 07:42:11;;;;;;;4.40;0.93;;;4.50;99.90;;;;;;5111872;27;20409;-78
2022/04/02 07:45:03;;;;;;;5.80;1.05;;;4.50;99.90;;;;;;5107538;27;20458;-78
2022/04/02 07:47:32;;;;;;;4.38;1.10;;;4.40;99.90;;;;;;5107281;28;20404;-79
2022/04/02 07:50:02;;;;;;;3.00;0.80;;;4.50;99.90;;;;;;5089734;28;20440;-78
2022/04/02 07:52:28;;;;;;;4.03;0.90;;;4.50;99.90;;;;;;5111759;27;20424;-79
2022/04/02 07:54:59;;;;;;;2.83;0.70;;;4.50;99.90;;;;;;5089203;27;20443;-79
2022/04/02 07:57:32;;;;;;;2.92;0.75;;;4.50;99.90;;;;;;5112538;27;20407;-79
2022/04/02 08:00:04;;;;;;;2.15;0.60;;;4.50;99.90;;;;;;5099773;28;20491;-79
2022/04/02 08:02:38;;;;;;;2.40;0.65;;;4.50;99.90;;;;;;5109015;28;20396;-80
2022/04/02 08:05:07;;;;;;;3.08;0.60;;;4.70;95.70;;;;;;5109422;28;20758;-79
2022/04/02 08:07:34;;;;;;;1.88;0.65;;;4.70;95.50;;;;;;5092131;28;20409;-78
2022/04/02 08:10:03;;;;;;;3.38;0.90;;;4.80;96.70;;;;;;5121907;27;20394;-78
2022/04/02 08:12:32;;;;;;;4.67;0.90;;;4.90;97.60;;;;;;5111268;27;20426;-78
2022/04/02 08:14:57;;;;;;;5.55;0.90;;;5.00;98.30;;;;;;5091162;27;20422;-78
2022/04/02 08:17:23;;;;;;;3.20;0.90;;;5.00;98.70;;;;;;5100494;28;20422;-78
2022/04/02 08:19:50;;;;;;;2.93;0.80;;;5.00;99.10;;;;;;5110194;27;20415;-78
2022/04/02 08:22:16;;;;;;;3.47;0.95;;;5.00;99.40;;;;;;5110937;27;20437;-78
2022/04/02 08:24:43;;;;;;;3.70;1.00;;;5.00;99.70;;;;;;5124824;27;20422;-78
2022/04/02 08:27:27;;;;;;;4.00;0.90;;;4.90;99.90;;;;;;5110783;27;20498;-78
2022/04/02 08:30:06;;;;;;;3.80;0.90;;;5.00;99.90;;;;;;5099037;28;20427;-78
2022/04/02 08:33:01;;;;;;;3.85;0.90;;;5.10;99.90;;;;;;5103735;27;20445;-78
2022/04/02 08:35:41;;;;;;;3.25;0.80;;;5.20;99.90;;;;;;5115540;27;20908;-78
2022/04/02 08:38:38;;;;;;;4.78;1.25;;;5.30;98.00;;;;;;5110372;28;20772;-78
2022/04/02 08:41:29;;;;;;;3.77;0.90;;;5.30;98.70;;;;;;5107658;27;20420;-75
2022/04/02 08:44:07;;;;;;;2.97;0.77;;;5.30;99.00;;;;;;5126102;27;20781;-77
2022/04/02 08:47:00;;;;;;;3.47;1.10;;;5.30;98.80;;;;;;5090325;28;20432;-78
2022/04/02 08:49:41;;;;;;;3.58;1.00;;;5.20;98.80;;;;;;5103896;27;20426;-78
2022/04/02 08:52:45;;;;;;;4.40;1.13;;;5.30;99.10;;;;;;5109149;27;20430;-77
2022/04/02 08:55:15;;;;;;;7.13;1.40;;;5.30;99.30;;;;;;5120051;27;20496;-78
2022/04/02 08:58:16;;;;;;;4.03;1.15;;;5.40;99.40;;;;;;5109481;28;20474;-78
2022/04/02 09:00:45;;;;;;;5.72;1.10;;;5.60;99.80;;;;;;5109855;27;20426;-78
2022/04/02 09:03:39;;;;;;;3.75;1.20;;;5.70;99.50;;;;;;5112606;27;20446;-78
2022/04/02 09:06:23;;;;;;;4.68;1.00;;;5.70;99.00;;;;;;5093782;28;20468;-78
2022/04/02 09:09:07;;;;;;;4.65;1.00;;;5.70;98.90;;;;;;5128873;28;20496;-78
2022/04/02 09:11:57;;;;;;;2.80;0.90;;;5.90;99.50;;;;;;5103242;28;21024;-78
2022/04/02 09:14:48;;;;;;;3.15;1.00;;;6.10;97.90;;;;;;5109848;28;20409;-78
2022/04/02 09:17:47;;;;;;;4.43;1.00;;;6.20;96.90;;;;;;5126162;28;20489;-78
2022/04/02 09:20:21;;;;;;;2.37;0.97;;;6.20;96.20;;;;;;5128412;28;20478;-77
2022/04/02 09:23:11;;;;;;;5.22;1.25;;;6.50;97.00;;;;;;5109207;28;20423;-78
2022/04/02 09:26:02;;;;;;;3.93;1.17;;;7.10;96.30;;;;;;5094008;28;20466;-78
2022/04/02 09:29:05;;;;;;;3.25;0.88;;;7.80;94.10;;;;;;5107941;28;20408;-78
2022/04/02 09:31:56;;;;;;;2.72;0.82;;;7.90;91.60;;;;;;5101885;28;20815;-78
2022/04/02 09:34:59;;;;;;;2.72;0.70;;;7.50;90.80;;;;;;5112778;28;20422;-78
2022/04/02 09:37:44;;;;;;;4.03;1.25;;;7.10;92.90;;;;;;5108808;28;20434;-77
2022/04/02 09:40:11;;;;;;;3.15;0.93;;;6.70;94.20;;;;;;5111511;28;20468;-77
2022/04/02 09:42:43;;;;;;;3.40;0.90;;;6.60;93.10;;;;;;5092541;28;20467;-77
2022/04/02 09:45:12;;;;;;;4.07;1.20;;;6.50;90.90;;;;;;5110004;28;20407;-77
2022/04/02 09:47:46;;;;;;;4.43;1.20;;;6.30;92.10;;;;;;5109009;28;20411;-77
2022/04/02 09:50:15;;;;;;;4.13;1.20;;;6.10;93.00;;;;;;5099333;28;20424;-77
2022/04/02 09:53:14;;;;;;;4.00;1.20;;;6.00;94.30;;;;;;5088829;28;20428;-77
2022/04/02 09:55:58;;;;;;;4.70;1.17;;;5.90;94.50;;;;;;5085300;28;20404;-77
2022/04/02 09:58:41;;;;;;;4.47;1.13;;;5.80;93.70;;;;;;5111189;28;20408;-77
2022/04/02 10:01:09;;;;;;;4.50;1.45;;;5.80;92.70;;;;;;5126579;27;20419;-77
2022/04/02 10:03:37;;;;;;;4.00;0.90;;;5.70;92.00;;;;;;5110000;27;20427;-77
2022/04/02 10:06:12;;;;;;;2.75;1.00;;;5.70;92.40;;;;;;5111774;28;20399;-76
2022/04/02 10:09:00;;;;;;;5.72;1.10;;;5.70;92.30;;;;;;5093239;28;20452;-77
2022/04/02 10:11:29;;;;;;;3.63;1.08;;;5.80;93.40;;;;;;5103039;27;20814;-78
2022/04/02 10:13:59;;;;;;;2.88;1.00;;;6.20;93.50;;;;;;5111712;27;20420;-76
2022/04/02 10:16:26;;;;;;;6.20;1.10;;;6.70;92.60;;;;;;5120724;27;20526;-77
2022/04/02 10:18:55;;;;;;;4.43;1.17;;;6.90;92.50;;;;;;5113164;27;20430;-76
2022/04/02 10:21:22;;;;;;;5.28;1.40;;;7.00;92.80;;;;;;5097868;28;20423;-76
2022/04/02 10:24:04;;;;;;;4.38;1.20;;;7.10;92.70;;;;;;5093146;28;20415;-76
2022/04/02 10:26:37;;;;;;;5.15;1.30;;;7.10;92.70;;;;;;5129423;27;20395;-76
2022/04/02 10:29:10;;;;;;;3.92;1.20;;;7.10;91.60;;;;;;5110691;27;20411;-76
2022/04/02 10:31:50;;;;;;;4.65;1.30;;;6.90;92.00;;;;;;5129979;27;20401;-76
2022/04/02 10:34:54;;;;;;;4.25;1.10;;;6.60;91.60;;;;;;5125808;27;20426;-76
2022/04/02 10:37:24;;;;;;;3.45;0.90;;;6.30;92.30;;;;;;5131198;27;20772;-78
2022/04/02 10:40:08;;;;;;;3.05;1.08;;;6.20;92.90;;;;;;5125202;27;20463;-76
2022/04/02 10:42:36;;;;;;;5.10;1.02;;;6.20;93.30;;;;;;5110107;27;20836;-77
2022/04/02 10:45:12;;;;;;;5.37;1.03;;;6.20;92.80;;;;;;5116620;27;20510;-80
2022/04/02 10:47:43;;;;;;;4.00;1.02;;;6.30;93.30;;;;;;5117081;27;20535;-77
2022/04/02 10:50:09;;;;;;;5.05;1.20;;;6.50;93.30;;;;;;5100646;28;20428;-77
2022/04/02 10:52:36;;;;;;;3.15;0.90;;;6.60;93.00;;;;;;5106200;27;20430;-77
2022/04/02 10:55:03;;;;;;;4.75;0.82;;;6.50;92.20;;;;;;5111322;27;20436;-77
2022/04/02 10:57:30;;;;;;;4.67;0.73;;;6.50;90.90;;;;;;5128258;27;20398;-77
2022/04/02 11:00:08;;;;;;;3.23;0.90;;;6.40;90.90;;;;;;5083221;28;20435;-77
2022/04/02 11:02:45;;;;;;;3.67;0.90;;;6.20;90.50;;;;;;5112377;27;20424;-77
2022/04/02 11:05:16;;;;;;;3.00;1.00;;;6.10;92.30;;;;;;5111529;27;20414;-77
2022/04/02 11:07:49;;;;;;;3.43;1.17;;;5.80;94.20;;;;;;5110373;27;20424;-78
2022/04/02 11:10:17;;;;;;;3.33;0.90;;;5.70;96.10;;;;;;5112657;27;20403;-77
2022/04/02 11:12:48;;;;;;;3.38;0.75;;;5.60;96.20;;;;;;5128382;27;20426;-77
2022/04/02 11:15:22;;;;;;;5.85;0.80;;;5.50;96.00;;;;;;5129793;27;20550;-77
2022/04/02 11:17:50;;;;;;;2.80;0.77;;;5.40;96.10;;;;;;5128423;27;20432;-77
2022/04/02 11:20:18;;;;;;;3.28;0.90;;;5.50;94.90;;;;;;5109299;27;20412;-78
2022/04/02 11:23:02;;;;;;;2.65;0.52;;;5.80;94.30;;;;;;5091502;28;20412;-77
2022/04/02 11:25:31;;;;;;;2.65;0.80;;;6.40;94.20;;;;;;5110049;28;20416;-77
2022/04/02 11:28:13;;;;;;;2.45;0.60;;;6.90;92.00;;;;;;5110476;27;20424;-77
2022/04/02 11:30:41;;;;;;;2.53;0.80;;;6.90;90.50;;;;;;5116418;27;20425;-77
2022/04/02 11:33:19;;;;;;;2.75;0.68;;;6.90;89.90;;;;;;5100902;28;21047;-78
2022/04/02 11:35:59;;;;;;;1.75;0.50;;;6.90;86.40;;;;;;5109735;28;20902;-78
2022/04/02 11:38:45;;;;;;;3.03;0.80;;;6.90;84.60;;;;;;5121706;27;20430;-77
2022/04/02 11:41:24;;;;;;;2.45;0.70;;;7.10;85.90;;;;;;5125726;27;20434;-77
2022/04/02 11:43:51;;;;;;;2.58;0.85;;;7.60;88.10;;;;;;5107037;28;20428;-77
2022/04/02 11:46:19;;;;;;;3.20;0.80;;;8.30;83.70;;;;;;5120126;27;20039;-77
2022/04/02 11:48:56;;;;;;;3.53;0.80;;;8.80;82.50;;;;;;5126950;27;20056;-77
2022/04/02 11:51:28;;;;;;;5.20;1.42;;;9.10;83.40;;;;;;5126469;27;20049;-78
2022/04/02 11:54:02;;;;;;;2.35;1.00;;;9.20;79.70;;;;;;5117360;27;20035;-79
2022/04/02 11:56:29;;;;;;;;;;;9.70;84.10;;;;;;5107549;27;20122;-77
2022/04/02 11:58:58;;;;;;;;;;;9.70;77.00;;;;;;5129389;27;19977;-76
2022/04/02 12:01:24;;;;;;;;;;;9.10;72.00;;;;;;5093623;27;19974;-77
2022/04/02 12:04:04;;;;;;;;;;;8.50;70.40;;;;;;5111093;28;19959;-75
2022/04/02 12:06:48;;;;;;;4.70;1.40;;;7.90;73.00;;;;;;5167944;27;20375;-78
2022/04/02 12:09:22;;;;;;;3.00;1.00;;;7.50;77.90;;;;;;5145765;27;20467;-77
2022/04/02 12:12:03;;;;;;;2.88;0.90;;;7.20;78.10;;;;;;5121612;27;20426;-77
2022/04/02 12:14:37;;;;;;;2.08;0.88;;;6.90;76.10;;;;;;5128922;27;20556;-77
2022/04/02 12:17:10;;;;;;;2.55;1.02;;;6.80;78.50;;;;;;5124255;27;20428;-77
2022/04/02 12:19:55;;;;;;;3.10;0.85;;;6.80;81.10;;;;;;5125880;27;20479;-77
2022/04/02 12:22:25;;;;;;;4.05;0.98;;;6.80;82.10;;;;;;5134371;27;20463;-77
2022/04/02 12:24:53;;;;;;;3.73;1.20;;;6.90;82.70;;;;;;5124002;28;20431;-77
2022/04/02 12:27:20;;;;;;;4.90;1.20;;;7.00;83.90;;;;;;5136523;27;20573;-78
2022/04/02 12:29:47;;;;;;;;;;;7.60;81.50;;;;;;5129918;27;20397;-77
2022/04/02 12:32:14;;;;;;;;;;;8.20;79.70;;;;;;5141712;27;19990;-77
2022/04/02 12:34:40;;;;;;;;;;;8.90;76.10;;;;;;5142477;27;20088;-77
2022/04/02 12:37:05;;;;;;;;;;;8.90;71.50;;;;;;5107954;28;19978;-77
2022/04/02 12:39:31;;;;;;;;;;;8.60;73.40;;;;;;5126242;28;19985;-77
2022/04/02 12:41:56;;;;;;;;;;;8.10;75.10;;;;;;5130436;27;19926;-76
2022/04/02 12:44:23;;;;;;;;;;;7.80;76.20;;;;;;5144461;27;20044;-77
2022/04/02 12:46:50;;;;;;;4.20;0.90;;;7.60;76.90;;;;;;5131928;27;19924;-77
2022/04/02 12:49:34;;;;;;;3.53;0.88;;;7.50;75.00;;;;;;5104868;28;21245;-76
2022/04/02 12:52:16;;;;;;;2.43;0.90;;;8.20;78.60;;;;;;5110199;28;20424;-77
2022/04/02 12:54:50;;;;;;;3.05;0.98;;;9.10;74.80;;;;;;5124028;28;20439;-77
2022/04/02 12:57:17;;;;;;;3.40;0.90;;;10.00;71.70;;;;;;5103376;28;20490;-77
2022/04/02 12:59:49;;;;;;;4.18;0.90;;;10.60;66.20;;;;;;5103779;28;20512;-76
2022/04/02 13:02:22;;;;;;;2.38;0.80;;;11.10;63.60;;;;;;5121714;28;20468;-76
2022/04/02 13:04:57;;;;;;;2.92;0.80;;;11.30;66.80;;;;;;5122534;28;20051;-77
2022/04/02 13:07:23;;;;;;;2.10;0.60;;;11.70;62.50;;;;;;5098519;28;20048;-79
2022/04/02 13:09:54;;;;;;;2.35;0.90;;;11.80;62.50;;;;;;5130706;27;20422;-77
2022/04/02 13:12:24;;;;;;;3.27;1.13;;;11.40;59.90;;;;;;5122840;28;20430;-77
2022/04/02 13:15:08;;;;;;;3.03;1.00;;;11.20;60.60;;;;;;5105079;28;20996;-77
2022/04/02 13:20:35;;;;;;;2.70;0.70;;;11.80;58.90;;;;;;5108614;28;21587;-77
2022/04/02 13:23:02;;;;;;;2.67;0.90;;;12.00;57.40;;;;;;5108847;28;20798;-77
2022/04/02 13:25:29;;;;;;;3.17;0.80;;;12.10;57.50;;;;;;5110211;28;20431;-77
2022/04/02 13:28:06;;;;;;;3.55;1.10;;;12.30;57.40;;;;;;5109910;28;20404;-76
2022/04/02 13:30:39;;;;;;;4.40;0.93;;;12.50;56.40;;;;;;5109531;28;20910;-77
2022/04/02 13:33:35;;;;;;;1.63;0.50;;;12.70;56.40;;;;;;5109688;28;20408;-77
2022/04/02 13:36:13;;;;;;;3.00;0.85;;;13.00;51.60;;;;;;5109500;28;20487;-77
2022/04/02 13:38:55;;;;;;;3.22;0.70;;;13.40;52.30;;;;;;5109342;28;20461;-77
2022/04/02 13:41:30;;;;;;;2.53;0.68;;;13.70;54.00;;;;;;5092124;28;20482;-77
2022/04/02 13:44:12;;;;;;;2.95;0.52;;;13.80;50.80;;;;;;5109084;28;20809;-77
2022/04/02 13:46:42;;;;;;;2.80;0.77;;;13.60;52.20;;;;;;5091619;28;20424;-77